sensor_id;sensor_type;location;lat;lon;timestamp;P1;durP1;ratioP1;P2;durP2;ratioP2
11245;SDS011;59870;50.106;8.580;2022-09-27T01:05:49;1.50;;;1.50;;
11245;SDS011;59870;50.106;8.580;2022-09-27T01:08:19;1.40;;;1.40;;
11245;SDS011;59870;50.106;8.580;2022-09-27T01:10:51;1.40;;;1.40;;
11245;SDS011;59870;50.106;8.580;2022-09-27T01:13:33;1.27;;;1.27;;
11245;SDS011;59870;50.106;8.580;2022-09-27T01:30:59;1.40;;;1.40;;
11245;SDS011;59870;50.106;8.580;2022-09-27T01:33:39;1.30;;;1.30;;
11245;SDS011;59870;50.106;8.580;2022-09-27T01:39:16;2.00;;;1.40;;
11245;SDS011;59870;50.106;8.580;2022-09-27T01:42:30;1.50;;;1.40;;
11245;SDS011;59870;50.106;8.580;2022-09-27T01:45:20;1.50;;;1.50;;
11245;SDS011;59870;50.106;8.580;2022-09-27T01:48:14;1.50;;;1.50;;
11245;SDS011;59870;50.106;8.580;2022-09-27T01:50:57;1.40;;;1.40;;
11245;SDS011;59870;50.106;8.580;2022-09-27T01:53:33;1.60;;;1.50;;
11245;SDS011;59870;50.106;8.580;2022-09-27T01:56:26;1.30;;;1.30;;
11245;SDS011;59870;50.106;8.580;2022-09-27T01:59:17;1.53;;;1.43;;
11245;SDS011;59870;50.106;8.580;2022-09-27T02:02:14;1.53;;;1.43;;
11245;SDS011;59870;50.106;8.580;2022-09-27T02:54:54;2.73;;;2.53;;
11245;SDS011;59870;50.106;8.580;2022-09-27T03:01:11;2.50;;;2.30;;
11245;SDS011;59870;50.106;8.580;2022-09-27T03:04:31;2.23;;;2.03;;
11245;SDS011;59870;50.106;8.580;2022-09-27T03:07:04;2.37;;;2.27;;
11245;SDS011;59870;50.106;8.580;2022-09-27T03:09:43;2.73;;;2.37;;
11245;SDS011;59870;50.106;8.580;2022-09-27T03:12:12;2.13;;;1.93;;
11245;SDS011;59870;50.106;8.580;2022-09-27T03:14:41;2.83;;;2.20;;
11245;SDS011;59870;50.106;8.580;2022-09-27T03:17:30;3.93;;;2.37;;
11245;SDS011;59870;50.106;8.580;2022-09-27T03:20:17;2.37;;;2.27;;
11245;SDS011;59870;50.106;8.580;2022-09-27T03:23:20;2.20;;;2.00;;
11245;SDS011;59870;50.106;8.580;2022-09-27T03:25:47;1.90;;;1.80;;
11245;SDS011;59870;50.106;8.580;2022-09-27T03:28:16;1.60;;;1.50;;
11245;SDS011;59870;50.106;8.580;2022-09-27T03:30:44;3.57;;;1.40;;
11245;SDS011;59870;50.106;8.580;2022-09-27T03:33:28;1.83;;;1.73;;
11245;SDS011;59870;50.106;8.580;2022-09-27T03:35:58;1.33;;;1.33;;
11245;SDS011;59870;50.106;8.580;2022-09-27T03:38:26;1.90;;;1.80;;
11245;SDS011;59870;50.106;8.580;2022-09-27T03:40:54;2.00;;;1.90;;
11245;SDS011;59870;50.106;8.580;2022-09-27T03:43:22;1.60;;;1.60;;
11245;SDS011;59870;50.106;8.580;2022-09-27T03:45:49;1.90;;;1.80;;
11245;SDS011;59870;50.106;8.580;2022-09-27T03:48:17;1.60;;;1.50;;
11245;SDS011;59870;50.106;8.580;2022-09-27T03:50:45;1.33;;;1.33;;
11245;SDS011;59870;50.106;8.580;2022-09-27T03:53:13;1.50;;;1.40;;
11245;SDS011;59870;50.106;8.580;2022-09-27T03:55:40;1.60;;;1.40;;
11245;SDS011;59870;50.106;8.580;2022-09-27T03:58:11;1.57;;;1.47;;
11245;SDS011;59870;50.106;8.580;2022-09-27T04:10:17;1.40;;;1.30;;
11245;SDS011;59870;50.106;8.580;2022-09-27T04:12:45;1.20;;;1.20;;
11245;SDS011;59870;50.106;8.580;2022-09-27T04:15:16;1.37;;;1.30;;
11245;SDS011;59870;50.106;8.580;2022-09-27T04:17:49;1.33;;;1.23;;
11245;SDS011;59870;50.106;8.580;2022-09-27T04:20:32;1.60;;;1.50;;
11245;SDS011;59870;50.106;8.580;2022-09-27T04:23:13;1.60;;;1.60;;
11245;SDS011;59870;50.106;8.580;2022-09-27T04:25:49;1.60;;;1.60;;
11245;SDS011;59870;50.106;8.580;2022-09-27T04:28:36;1.30;;;1.30;;
11245;SDS011;59870;50.106;8.580;2022-09-27T04:31:04;1.43;;;1.33;;
11245;SDS011;59870;50.106;8.580;2022-09-27T04:34:00;1.60;;;1.50;;
11245;SDS011;59870;50.106;8.580;2022-09-27T04:36:32;1.70;;;1.60;;
11245;SDS011;59870;50.106;8.580;2022-09-27T04:39:05;3.60;;;1.30;;
11245;SDS011;59870;50.106;8.580;2022-09-27T04:41:36;1.27;;;1.27;;
11245;SDS011;59870;50.106;8.580;2022-09-27T04:44:04;1.47;;;1.30;;
11245;SDS011;59870;50.106;8.580;2022-09-27T04:46:33;5.97;;;1.93;;
11245;SDS011;59870;50.106;8.580;2022-09-27T05:47:55;2.03;;;1.60;;
11245;SDS011;59870;50.106;8.580;2022-09-27T05:50:26;1.77;;;1.67;;
11245;SDS011;59870;50.106;8.580;2022-09-27T05:52:54;1.40;;;1.40;;
11245;SDS011;59870;50.106;8.580;2022-09-27T05:55:22;1.77;;;1.73;;
11245;SDS011;59870;50.106;8.580;2022-09-27T05:58:17;2.23;;;1.70;;
11245;SDS011;59870;50.106;8.580;2022-09-27T06:01:17;1.60;;;1.50;;
11245;SDS011;59870;50.106;8.580;2022-09-27T06:04:24;1.90;;;1.80;;
11245;SDS011;59870;50.106;8.580;2022-09-27T06:10:45;1.50;;;1.50;;
11245;SDS011;59870;50.106;8.580;2022-09-27T06:13:14;1.67;;;1.57;;
11245;SDS011;59870;50.106;8.580;2022-09-27T06:15:43;1.80;;;1.70;;
11245;SDS011;59870;50.106;8.580;2022-09-27T06:21:10;1.80;;;1.70;;
11245;SDS011;59870;50.106;8.580;2022-09-27T06:23:56;1.57;;;1.50;;
11245;SDS011;59870;50.106;8.580;2022-09-27T07:30:29;1.73;;;1.70;;
11245;SDS011;59870;50.106;8.580;2022-09-27T07:33:01;1.80;;;1.70;;
11245;SDS011;59870;50.106;8.580;2022-09-27T07:35:30;1.47;;;1.40;;
11245;SDS011;59870;50.106;8.580;2022-09-27T07:37:58;2.00;;;1.80;;
11245;SDS011;59870;50.106;8.580;2022-09-27T07:40:32;1.70;;;1.60;;
11245;SDS011;59870;50.106;8.580;2022-09-27T07:43:15;1.90;;;1.80;;
11245;SDS011;59870;50.106;8.580;2022-09-27T07:58:26;1.90;;;1.80;;
11245;SDS011;59870;50.106;8.580;2022-09-27T08:00:58;1.63;;;1.53;;
11245;SDS011;59870;50.106;8.580;2022-09-27T08:03:27;2.13;;;2.00;;
11245;SDS011;59870;50.106;8.580;2022-09-27T08:05:54;1.50;;;1.40;;
11245;SDS011;59870;50.106;8.580;2022-09-27T08:08:22;2.10;;;1.90;;
11245;SDS011;59870;50.106;8.580;2022-09-27T08:10:52;1.77;;;1.70;;
11245;SDS011;59870;50.106;8.580;2022-09-27T08:13:19;1.87;;;1.77;;
11245;SDS011;59870;50.106;8.580;2022-09-27T08:47:04;2.00;;;1.90;;
11245;SDS011;59870;50.106;8.580;2022-09-27T08:52:59;1.70;;;1.60;;
11245;SDS011;59870;50.106;8.580;2022-09-27T08:55:43;1.77;;;1.70;;
11245;SDS011;59870;50.106;8.580;2022-09-27T09:05:26;2.00;;;1.80;;
11245;SDS011;59870;50.106;8.580;2022-09-27T09:08:14;2.17;;;2.03;;
11245;SDS011;59870;50.106;8.580;2022-09-27T09:17:09;1.67;;;1.57;;
11245;SDS011;59870;50.106;8.580;2022-09-27T09:20:14;2.10;;;1.90;;
11245;SDS011;59870;50.106;8.580;2022-09-27T09:25:59;1.80;;;1.70;;
11245;SDS011;59870;50.106;8.580;2022-09-27T09:31:34;2.00;;;1.90;;
11245;SDS011;59870;50.106;8.580;2022-09-27T09:34:14;2.33;;;1.70;;
11245;SDS011;59870;50.106;8.580;2022-09-27T09:36:57;1.80;;;1.70;;
11245;SDS011;59870;50.106;8.580;2022-09-27T09:39:46;2.07;;;1.97;;
11245;SDS011;59870;50.106;8.580;2022-09-27T09:42:26;1.70;;;1.60;;
11245;SDS011;59870;50.106;8.580;2022-09-27T09:45:23;1.67;;;1.57;;
11245;SDS011;59870;50.106;8.580;2022-09-27T09:50:52;1.53;;;1.50;;
11245;SDS011;59870;50.106;8.580;2022-09-27T09:56:04;2.17;;;1.97;;
11245;SDS011;59870;50.106;8.580;2022-09-27T09:58:39;1.40;;;1.40;;
11245;SDS011;59870;50.106;8.580;2022-09-27T10:01:26;2.70;;;1.57;;
11245;SDS011;59870;50.106;8.580;2022-09-27T10:07:28;1.53;;;1.50;;
11245;SDS011;59870;50.106;8.580;2022-09-27T10:09:59;4.07;;;1.83;;
11245;SDS011;59870;50.106;8.580;2022-09-27T10:12:48;1.70;;;1.70;;
11245;SDS011;59870;50.106;8.580;2022-09-27T10:15:21;1.90;;;1.80;;
11245;SDS011;59870;50.106;8.580;2022-09-27T10:17:51;2.20;;;1.67;;
11245;SDS011;59870;50.106;8.580;2022-09-27T10:23:10;1.77;;;1.67;;
11245;SDS011;59870;50.106;8.580;2022-09-27T10:26:09;1.87;;;1.63;;
11245;SDS011;59870;50.106;8.580;2022-09-27T10:28:51;2.00;;;1.90;;
11245;SDS011;59870;50.106;8.580;2022-09-27T10:31:32;1.30;;;1.27;;
11245;SDS011;59870;50.106;8.580;2022-09-27T10:34:17;2.00;;;1.90;;
11245;SDS011;59870;50.106;8.580;2022-09-27T10:37:17;1.87;;;1.77;;
11245;SDS011;59870;50.106;8.580;2022-09-27T10:40:00;1.87;;;1.70;;
11245;SDS011;59870;50.106;8.580;2022-09-27T10:42:42;2.00;;;1.90;;
11245;SDS011;59870;50.106;8.580;2022-09-27T10:48:03;1.90;;;1.70;;
11245;SDS011;59870;50.106;8.580;2022-09-27T10:51:00;1.63;;;1.53;;
11245;SDS011;59870;50.106;8.580;2022-09-27T10:53:47;3.80;;;1.70;;
11245;SDS011;59870;50.106;8.580;2022-09-27T10:56:24;1.90;;;1.80;;
11245;SDS011;59870;50.106;8.580;2022-09-27T10:59:00;2.00;;;1.90;;
11245;SDS011;59870;50.106;8.580;2022-09-27T11:01:41;1.73;;;1.63;;
11245;SDS011;59870;50.106;8.580;2022-09-27T11:04:30;1.83;;;1.73;;
11245;SDS011;59870;50.106;8.580;2022-09-27T11:09:45;1.77;;;1.67;;
11245;SDS011;59870;50.106;8.580;2022-09-27T11:19:03;1.67;;;1.57;;
11245;SDS011;59870;50.106;8.580;2022-09-27T12:13:56;1.53;;;1.47;;
11245;SDS011;59870;50.106;8.580;2022-09-27T12:17:58;1.93;;;1.83;;
11245;SDS011;59870;50.106;8.580;2022-09-27T12:22:03;2.07;;;2.00;;
11245;SDS011;59870;50.106;8.580;2022-09-27T12:31:14;2.23;;;2.00;;
11245;SDS011;59870;50.106;8.580;2022-09-27T12:42:39;1.57;;;1.47;;
11245;SDS011;59870;50.106;8.580;2022-09-27T12:45:35;2.17;;;1.60;;
11245;SDS011;59870;50.106;8.580;2022-09-27T12:48:19;1.60;;;1.50;;
11245;SDS011;59870;50.106;8.580;2022-09-27T12:51:05;1.90;;;1.80;;
11245;SDS011;59870;50.106;8.580;2022-09-27T12:54:17;1.90;;;1.80;;
11245;SDS011;59870;50.106;8.580;2022-09-27T12:59:45;2.07;;;1.97;;
11245;SDS011;59870;50.106;8.580;2022-09-27T13:13:23;2.03;;;1.93;;
11245;SDS011;59870;50.106;8.580;2022-09-27T13:15:57;2.07;;;1.97;;
11245;SDS011;59870;50.106;8.580;2022-09-27T13:18:31;1.80;;;1.70;;
11245;SDS011;59870;50.106;8.580;2022-09-27T13:21:03;1.70;;;1.60;;
11245;SDS011;59870;50.106;8.580;2022-09-27T13:23:49;2.20;;;2.10;;
11245;SDS011;59870;50.106;8.580;2022-09-27T13:27:01;1.93;;;1.83;;
11245;SDS011;59870;50.106;8.580;2022-09-27T13:29:25;1.40;;;1.40;;
11245;SDS011;59870;50.106;8.580;2022-09-27T13:41:15;2.30;;;1.80;;
11245;SDS011;59870;50.106;8.580;2022-09-27T13:43:58;2.33;;;2.03;;
11245;SDS011;59870;50.106;8.580;2022-09-27T13:46:51;1.83;;;1.73;;
11245;SDS011;59870;50.106;8.580;2022-09-27T14:00:57;2.93;;;2.20;;
11245;SDS011;59870;50.106;8.580;2022-09-27T14:03:29;1.40;;;1.40;;
11245;SDS011;59870;50.106;8.580;2022-09-27T14:06:25;1.57;;;1.57;;
11245;SDS011;59870;50.106;8.580;2022-09-27T14:08:59;2.23;;;1.70;;
11245;SDS011;59870;50.106;8.580;2022-09-27T14:11:41;1.70;;;1.70;;
11245;SDS011;59870;50.106;8.580;2022-09-27T14:14:16;1.70;;;1.60;;
11245;SDS011;59870;50.106;8.580;2022-09-27T14:16:53;1.57;;;1.47;;
11245;SDS011;59870;50.106;8.580;2022-09-27T14:19:21;2.00;;;1.90;;
11245;SDS011;59870;50.106;8.580;2022-09-27T14:21:54;1.97;;;1.87;;
11245;SDS011;59870;50.106;8.580;2022-09-27T14:27:20;2.03;;;1.90;;
11245;SDS011;59870;50.106;8.580;2022-09-27T14:30:12;1.80;;;1.70;;
11245;SDS011;59870;50.106;8.580;2022-09-27T14:32:49;1.97;;;1.97;;
11245;SDS011;59870;50.106;8.580;2022-09-27T14:35:34;1.83;;;1.53;;
11245;SDS011;59870;50.106;8.580;2022-09-27T14:38:32;1.97;;;1.87;;
11245;SDS011;59870;50.106;8.580;2022-09-27T14:41:13;1.83;;;1.73;;
11245;SDS011;59870;50.106;8.580;2022-09-27T14:43:42;1.97;;;1.87;;
11245;SDS011;59870;50.106;8.580;2022-09-27T14:46:28;5.10;;;1.80;;
11245;SDS011;59870;50.106;8.580;2022-09-27T14:48:57;1.73;;;1.63;;
11245;SDS011;59870;50.106;8.580;2022-09-27T14:51:27;1.93;;;1.93;;
11245;SDS011;59870;50.106;8.580;2022-09-27T14:53:58;2.97;;;1.97;;
11245;SDS011;59870;50.106;8.580;2022-09-27T14:56:32;2.00;;;1.80;;
11245;SDS011;59870;50.106;8.580;2022-09-27T14:59:06;1.87;;;1.70;;
11245;SDS011;59870;50.106;8.580;2022-09-27T15:01:49;2.00;;;1.90;;
11245;SDS011;59870;50.106;8.580;2022-09-27T15:04:18;2.00;;;1.83;;
11245;SDS011;59870;50.106;8.580;2022-09-27T15:06:48;1.87;;;1.77;;
11245;SDS011;59870;50.106;8.580;2022-09-27T15:09:16;1.97;;;1.87;;
11245;SDS011;59870;50.106;8.580;2022-09-27T15:11:46;2.33;;;1.60;;
11245;SDS011;59870;50.106;8.580;2022-09-27T15:14:19;2.20;;;1.97;;
11245;SDS011;59870;50.106;8.580;2022-09-27T15:16:49;1.93;;;1.83;;
11245;SDS011;59870;50.106;8.580;2022-09-27T15:19:25;2.07;;;1.97;;
11245;SDS011;59870;50.106;8.580;2022-09-27T15:21:55;2.10;;;2.00;;
11245;SDS011;59870;50.106;8.580;2022-09-27T15:24:46;2.17;;;1.77;;
11245;SDS011;59870;50.106;8.580;2022-09-27T15:27:14;2.40;;;2.30;;
11245;SDS011;59870;50.106;8.580;2022-09-27T15:29:51;1.80;;;1.70;;
11245;SDS011;59870;50.106;8.580;2022-09-27T15:32:22;1.60;;;1.50;;
11245;SDS011;59870;50.106;8.580;2022-09-27T15:34:54;1.87;;;1.77;;
11245;SDS011;59870;50.106;8.580;2022-09-27T15:37:36;1.50;;;1.50;;
11245;SDS011;59870;50.106;8.580;2022-09-27T15:42:55;1.67;;;1.57;;
11245;SDS011;59870;50.106;8.580;2022-09-27T15:45:30;2.23;;;1.53;;
11245;SDS011;59870;50.106;8.580;2022-09-27T15:48:12;2.33;;;1.67;;
11245;SDS011;59870;50.106;8.580;2022-09-27T15:50:41;1.97;;;1.87;;
11245;SDS011;59870;50.106;8.580;2022-09-27T15:53:09;2.10;;;2.00;;
11245;SDS011;59870;50.106;8.580;2022-09-27T15:55:40;2.13;;;1.93;;
11245;SDS011;59870;50.106;8.580;2022-09-27T15:58:14;2.23;;;2.13;;
11245;SDS011;59870;50.106;8.580;2022-09-27T16:01:04;2.70;;;2.53;;
11245;SDS011;59870;50.106;8.580;2022-09-27T16:03:32;2.60;;;2.43;;
11245;SDS011;59870;50.106;8.580;2022-09-27T16:06:01;1.97;;;1.87;;
11245;SDS011;59870;50.106;8.580;2022-09-27T16:08:29;3.23;;;1.80;;
11245;SDS011;59870;50.106;8.580;2022-09-27T16:10:57;2.63;;;2.43;;
11245;SDS011;59870;50.106;8.580;2022-09-27T16:13:25;2.50;;;2.30;;
11245;SDS011;59870;50.106;8.580;2022-09-27T16:15:58;2.63;;;1.80;;
11245;SDS011;59870;50.106;8.580;2022-09-27T16:18:28;1.77;;;1.67;;
11245;SDS011;59870;50.106;8.580;2022-09-27T16:20:57;1.77;;;1.73;;
11245;SDS011;59870;50.106;8.580;2022-09-27T16:23:25;1.90;;;1.70;;
11245;SDS011;59870;50.106;8.580;2022-09-27T16:25:52;1.60;;;1.50;;
11245;SDS011;59870;50.106;8.580;2022-09-27T16:28:20;1.90;;;1.80;;
11245;SDS011;59870;50.106;8.580;2022-09-27T16:30:47;2.43;;;1.90;;
11245;SDS011;59870;50.106;8.580;2022-09-27T16:33:15;2.43;;;2.23;;
11245;SDS011;59870;50.106;8.580;2022-09-27T16:35:42;2.20;;;2.10;;
11245;SDS011;59870;50.106;8.580;2022-09-27T16:38:10;2.47;;;2.27;;
11245;SDS011;59870;50.106;8.580;2022-09-27T16:40:37;2.60;;;2.40;;
11245;SDS011;59870;50.106;8.580;2022-09-27T16:43:04;2.33;;;2.23;;
11245;SDS011;59870;50.106;8.580;2022-09-27T16:45:34;3.67;;;2.30;;
11245;SDS011;59870;50.106;8.580;2022-09-27T16:48:02;2.43;;;2.33;;
11245;SDS011;59870;50.106;8.580;2022-09-27T17:09:30;2.67;;;2.57;;
11245;SDS011;59870;50.106;8.580;2022-09-27T17:11:58;3.00;;;2.80;;
11245;SDS011;59870;50.106;8.580;2022-09-27T17:14:25;3.37;;;3.07;;
11245;SDS011;59870;50.106;8.580;2022-09-27T17:16:53;3.00;;;2.87;;
11245;SDS011;59870;50.106;8.580;2022-09-27T17:19:21;3.40;;;3.17;;
11245;SDS011;59870;50.106;8.580;2022-09-27T17:21:49;5.57;;;5.07;;
11245;SDS011;59870;50.106;8.580;2022-09-27T17:24:16;5.43;;;4.67;;
11245;SDS011;59870;50.106;8.580;2022-09-27T17:26:44;4.07;;;3.67;;
11245;SDS011;59870;50.106;8.580;2022-09-27T17:29:12;3.37;;;3.17;;
11245;SDS011;59870;50.106;8.580;2022-09-27T17:31:40;5.17;;;3.47;;
11245;SDS011;59870;50.106;8.580;2022-09-27T17:34:09;3.00;;;2.80;;
11245;SDS011;59870;50.106;8.580;2022-09-27T17:36:41;2.80;;;2.70;;
11245;SDS011;59870;50.106;8.580;2022-09-27T17:39:11;3.33;;;3.13;;
11245;SDS011;59870;50.106;8.580;2022-09-27T18:58:42;3.03;;;2.50;;
11245;SDS011;59870;50.106;8.580;2022-09-27T19:01:11;2.30;;;2.20;;
11245;SDS011;59870;50.106;8.580;2022-09-27T19:06:35;2.77;;;2.57;;
11245;SDS011;59870;50.106;8.580;2022-09-27T19:09:05;2.43;;;2.23;;
11245;SDS011;59870;50.106;8.580;2022-09-27T19:20:13;2.63;;;2.43;;
11245;SDS011;59870;50.106;8.580;2022-09-27T19:26:05;2.40;;;2.20;;
11245;SDS011;59870;50.106;8.580;2022-09-27T19:34:24;2.30;;;2.20;;
